sensor_id;sensor_type;location;lat;lon;timestamp;temperature;humidity
10722;DHT22;5412;59.450;18.124;2023-11-25T00:00:45;-0.10;99.90
10722;DHT22;5412;59.450;18.124;2023-11-25T00:03:11;-0.20;99.90
10722;DHT22;5412;59.450;18.124;2023-11-25T00:05:37;-0.10;99.90
10722;DHT22;5412;59.450;18.124;2023-11-25T00:08:03;-0.30;99.90
10722;DHT22;5412;59.450;18.124;2023-11-25T00:10:28;-0.40;99.90
10722;DHT22;5412;59.450;18.124;2023-11-25T00:12:54;-0.40;99.90
10722;DHT22;5412;59.450;18.124;2023-11-25T00:15:20;-0.30;99.90
10722;DHT22;5412;59.450;18.124;2023-11-25T00:17:51;-0.40;99.90
10722;DHT22;5412;59.450;18.124;2023-11-25T00:20:21;-0.40;99.90
10722;DHT22;5412;59.450;18.124;2023-11-25T00:22:47;-0.40;99.90
10722;DHT22;5412;59.450;18.124;2023-11-25T00:25:13;-0.40;99.90
10722;DHT22;5412;59.450;18.124;2023-11-25T00:27:39;-0.40;99.90
10722;DHT22;5412;59.450;18.124;2023-11-25T00:30:06;-0.50;99.90
10722;DHT22;5412;59.450;18.124;2023-11-25T00:32:32;-0.50;99.90
10722;DHT22;5412;59.450;18.124;2023-11-25T00:35:03;-0.40;99.90
10722;DHT22;5412;59.450;18.124;2023-11-25T00:37:31;-0.40;99.90
10722;DHT22;5412;59.450;18.124;2023-11-25T00:39:57;-0.30;99.90
10722;DHT22;5412;59.450;18.124;2023-11-25T00:42:25;-0.30;99.90
10722;DHT22;5412;59.450;18.124;2023-11-25T00:44:50;-0.40;99.90
10722;DHT22;5412;59.450;18.124;2023-11-25T00:47:16;-0.40;99.90
10722;DHT22;5412;59.450;18.124;2023-11-25T00:49:42;-0.40;99.90
10722;DHT22;5412;59.450;18.124;2023-11-25T00:52:10;-0.30;99.90
10722;DHT22;5412;59.450;18.124;2023-11-25T00:54:36;-0.30;99.90
10722;DHT22;5412;59.450;18.124;2023-11-25T00:57:01;-0.30;99.90
10722;DHT22;5412;59.450;18.124;2023-11-25T00:59:27;-0.40;99.90
10722;DHT22;5412;59.450;18.124;2023-11-25T01:01:54;-0.40;99.90
10722;DHT22;5412;59.450;18.124;2023-11-25T01:04:20;-0.30;99.90
10722;DHT22;5412;59.450;18.124;2023-11-25T01:06:46;-0.20;99.90
10722;DHT22;5412;59.450;18.124;2023-11-25T01:09:13;-0.20;99.90
10722;DHT22;5412;59.450;18.124;2023-11-25T01:11:45;-0.20;99.90
10722;DHT22;5412;59.450;18.124;2023-11-25T01:14:11;-0.20;99.90
10722;DHT22;5412;59.450;18.124;2023-11-25T01:16:38;-0.40;99.90
10722;DHT22;5412;59.450;18.124;2023-11-25T01:19:04;-0.40;99.90
10722;DHT22;5412;59.450;18.124;2023-11-25T01:21:30;-0.40;99.90
10722;DHT22;5412;59.450;18.124;2023-11-25T01:23:56;-0.40;99.90
10722;DHT22;5412;59.450;18.124;2023-11-25T01:26:22;-0.40;99.90
10722;DHT22;5412;59.450;18.124;2023-11-25T01:28:48;-0.40;99.90
10722;DHT22;5412;59.450;18.124;2023-11-25T01:31:14;-0.50;99.90
10722;DHT22;5412;59.450;18.124;2023-11-25T01:33:40;-0.50;99.90
10722;DHT22;5412;59.450;18.124;2023-11-25T01:36:07;-0.50;99.90
10722;DHT22;5412;59.450;18.124;2023-11-25T01:38:36;-0.40;99.90
10722;DHT22;5412;59.450;18.124;2023-11-25T01:41:03;-0.40;99.90
10722;DHT22;5412;59.450;18.124;2023-11-25T01:43:30;-0.40;99.90
10722;DHT22;5412;59.450;18.124;2023-11-25T01:45:56;-0.40;99.90
10722;DHT22;5412;59.450;18.124;2023-11-25T01:48:23;-0.60;99.90
10722;DHT22;5412;59.450;18.124;2023-11-25T01:50:51;-0.50;99.90
10722;DHT22;5412;59.450;18.124;2023-11-25T01:53:18;-0.50;99.90
10722;DHT22;5412;59.450;18.124;2023-11-25T01:55:45;-0.40;99.90
10722;DHT22;5412;59.450;18.124;2023-11-25T01:58:13;-0.50;99.90
10722;DHT22;5412;59.450;18.124;2023-11-25T02:00:43;-0.40;99.90
10722;DHT22;5412;59.450;18.124;2023-11-25T02:03:13;-0.50;99.90
10722;DHT22;5412;59.450;18.124;2023-11-25T02:05:39;-0.50;99.90
10722;DHT22;5412;59.450;18.124;2023-11-25T02:08:08;-0.50;99.90
10722;DHT22;5412;59.450;18.124;2023-11-25T02:10:34;-0.40;99.90
10722;DHT22;5412;59.450;18.124;2023-11-25T02:13:03;-0.50;99.90
10722;DHT22;5412;59.450;18.124;2023-11-25T02:15:34;-0.60;99.90
10722;DHT22;5412;59.450;18.124;2023-11-25T02:18:00;-0.50;99.90
10722;DHT22;5412;59.450;18.124;2023-11-25T02:20:35;-0.50;99.90
10722;DHT22;5412;59.450;18.124;2023-11-25T02:23:02;-0.70;99.90
10722;DHT22;5412;59.450;18.124;2023-11-25T02:25:29;-0.70;99.90
10722;DHT22;5412;59.450;18.124;2023-11-25T02:27:55;-0.70;99.90
10722;DHT22;5412;59.450;18.124;2023-11-25T02:30:21;-0.70;99.90
10722;DHT22;5412;59.450;18.124;2023-11-25T02:32:49;-0.70;99.90
10722;DHT22;5412;59.450;18.124;2023-11-25T02:35:19;-0.80;99.90
10722;DHT22;5412;59.450;18.124;2023-11-25T02:37:46;-0.80;99.90
10722;DHT22;5412;59.450;18.124;2023-11-25T02:40:13;-0.80;99.90
10722;DHT22;5412;59.450;18.124;2023-11-25T02:42:43;-0.90;99.90
10722;DHT22;5412;59.450;18.124;2023-11-25T02:45:16;-0.90;99.90
10722;DHT22;5412;59.450;18.124;2023-11-25T02:47:45;-0.90;99.90
10722;DHT22;5412;59.450;18.124;2023-11-25T02:50:12;-0.90;99.90
10722;DHT22;5412;59.450;18.124;2023-11-25T02:52:39;-0.90;99.90
10722;DHT22;5412;59.450;18.124;2023-11-25T02:55:05;-0.80;99.90
10722;DHT22;5412;59.450;18.124;2023-11-25T02:57:31;-0.80;99.90
10722;DHT22;5412;59.450;18.124;2023-11-25T02:59:58;-0.80;99.90
10722;DHT22;5412;59.450;18.124;2023-11-25T03:02:25;-0.80;99.90
10722;DHT22;5412;59.450;18.124;2023-11-25T03:04:51;-0.80;99.90
10722;DHT22;5412;59.450;18.124;2023-11-25T03:07:16;-0.70;99.90
10722;DHT22;5412;59.450;18.124;2023-11-25T03:09:44;-0.90;99.90
10722;DHT22;5412;59.450;18.124;2023-11-25T03:12:10;-0.90;99.90
10722;DHT22;5412;59.450;18.124;2023-11-25T03:14:35;-1.00;99.90
10722;DHT22;5412;59.450;18.124;2023-11-25T03:17:01;-1.10;99.90
10722;DHT22;5412;59.450;18.124;2023-11-25T03:19:27;-1.20;99.90
10722;DHT22;5412;59.450;18.124;2023-11-25T03:21:53;-1.20;99.90
10722;DHT22;5412;59.450;18.124;2023-11-25T03:24:18;-1.30;99.90
10722;DHT22;5412;59.450;18.124;2023-11-25T03:26:47;-1.40;99.90
10722;DHT22;5412;59.450;18.124;2023-11-25T03:29:13;-1.40;99.90
10722;DHT22;5412;59.450;18.124;2023-11-25T03:31:42;-1.50;99.90
10722;DHT22;5412;59.450;18.124;2023-11-25T03:34:08;-1.50;99.90
10722;DHT22;5412;59.450;18.124;2023-11-25T03:36:35;-1.60;99.90
10722;DHT22;5412;59.450;18.124;2023-11-25T03:39:01;-1.60;99.90
10722;DHT22;5412;59.450;18.124;2023-11-25T03:41:26;-1.70;99.90
10722;DHT22;5412;59.450;18.124;2023-11-25T03:43:54;-1.60;99.90
10722;DHT22;5412;59.450;18.124;2023-11-25T03:46:19;-1.60;99.90
10722;DHT22;5412;59.450;18.124;2023-11-25T03:48:45;-1.60;99.90
10722;DHT22;5412;59.450;18.124;2023-11-25T03:51:11;-1.70;99.90
10722;DHT22;5412;59.450;18.124;2023-11-25T03:53:37;-1.80;99.90
10722;DHT22;5412;59.450;18.124;2023-11-25T03:56:02;-2.00;99.90
10722;DHT22;5412;59.450;18.124;2023-11-25T03:58:28;-1.90;99.90
10722;DHT22;5412;59.450;18.124;2023-11-25T04:00:54;-2.00;99.90
10722;DHT22;5412;59.450;18.124;2023-11-25T04:03:20;-1.90;99.90
10722;DHT22;5412;59.450;18.124;2023-11-25T04:05:46;-1.90;99.90
10722;DHT22;5412;59.450;18.124;2023-11-25T04:08:12;-1.90;99.90
10722;DHT22;5412;59.450;18.124;2023-11-25T04:10:37;-2.00;99.90
10722;DHT22;5412;59.450;18.124;2023-11-25T04:13:03;-2.10;99.90
10722;DHT22;5412;59.450;18.124;2023-11-25T04:15:29;-2.10;99.90
10722;DHT22;5412;59.450;18.124;2023-11-25T04:17:54;-1.90;99.90
10722;DHT22;5412;59.450;18.124;2023-11-25T04:20:20;-1.90;99.90
10722;DHT22;5412;59.450;18.124;2023-11-25T04:22:56;-1.90;99.90
10722;DHT22;5412;59.450;18.124;2023-11-25T04:25:24;-1.80;99.90
10722;DHT22;5412;59.450;18.124;2023-11-25T04:27:50;-1.90;99.90
10722;DHT22;5412;59.450;18.124;2023-11-25T04:30:16;-1.80;99.90
10722;DHT22;5412;59.450;18.124;2023-11-25T04:32:44;-2.00;99.90
10722;DHT22;5412;59.450;18.124;2023-11-25T04:35:10;-1.90;99.90
10722;DHT22;5412;59.450;18.124;2023-11-25T04:37:36;-2.10;99.90
10722;DHT22;5412;59.450;18.124;2023-11-25T04:40:05;-2.00;99.90
10722;DHT22;5412;59.450;18.124;2023-11-25T04:42:37;-1.90;99.90
10722;DHT22;5412;59.450;18.124;2023-11-25T04:45:03;-2.00;99.90
10722;DHT22;5412;59.450;18.124;2023-11-25T04:47:29;-2.20;99.90
10722;DHT22;5412;59.450;18.124;2023-11-25T04:49:55;-2.10;99.90
10722;DHT22;5412;59.450;18.124;2023-11-25T04:52:20;-2.10;99.90
10722;DHT22;5412;59.450;18.124;2023-11-25T04:54:46;-2.20;99.90
10722;DHT22;5412;59.450;18.124;2023-11-25T04:57:13;-2.30;99.90
10722;DHT22;5412;59.450;18.124;2023-11-25T04:59:40;-2.30;99.90
10722;DHT22;5412;59.450;18.124;2023-11-25T05:02:05;-2.20;99.90
10722;DHT22;5412;59.450;18.124;2023-11-25T05:04:32;-2.30;99.90
10722;DHT22;5412;59.450;18.124;2023-11-25T05:06:58;-2.20;99.90
10722;DHT22;5412;59.450;18.124;2023-11-25T05:09:24;-2.30;99.90
10722;DHT22;5412;59.450;18.124;2023-11-25T05:11:52;-2.30;99.90
10722;DHT22;5412;59.450;18.124;2023-11-25T05:14:19;-2.30;99.90
10722;DHT22;5412;59.450;18.124;2023-11-25T05:16:45;-2.40;99.90
10722;DHT22;5412;59.450;18.124;2023-11-25T05:19:12;-2.30;99.90
10722;DHT22;5412;59.450;18.124;2023-11-25T05:21:38;-2.20;99.90
10722;DHT22;5412;59.450;18.124;2023-11-25T05:24:04;-2.30;99.90
10722;DHT22;5412;59.450;18.124;2023-11-25T05:26:30;-2.30;99.90
10722;DHT22;5412;59.450;18.124;2023-11-25T05:28:56;-2.30;99.90
10722;DHT22;5412;59.450;18.124;2023-11-25T05:31:22;-2.30;99.90
10722;DHT22;5412;59.450;18.124;2023-11-25T05:33:48;-2.50;99.90
10722;DHT22;5412;59.450;18.124;2023-11-25T05:36:14;-2.50;99.90
10722;DHT22;5412;59.450;18.124;2023-11-25T05:38:40;-2.40;99.90
10722;DHT22;5412;59.450;18.124;2023-11-25T05:41:06;-2.40;99.90
10722;DHT22;5412;59.450;18.124;2023-11-25T05:43:34;-2.50;99.90
10722;DHT22;5412;59.450;18.124;2023-11-25T05:46:00;-2.60;99.90
10722;DHT22;5412;59.450;18.124;2023-11-25T05:48:25;-2.50;99.90
10722;DHT22;5412;59.450;18.124;2023-11-25T05:50:52;-2.60;99.90
10722;DHT22;5412;59.450;18.124;2023-11-25T05:53:18;-2.50;99.90
10722;DHT22;5412;59.450;18.124;2023-11-25T05:55:44;-2.40;99.90
10722;DHT22;5412;59.450;18.124;2023-11-25T05:58:09;-2.50;99.90
10722;DHT22;5412;59.450;18.124;2023-11-25T06:00:35;-2.50;99.90
10722;DHT22;5412;59.450;18.124;2023-11-25T06:03:01;-2.60;99.90
10722;DHT22;5412;59.450;18.124;2023-11-25T06:05:26;-2.60;99.90
10722;DHT22;5412;59.450;18.124;2023-11-25T06:07:55;-2.80;99.90
10722;DHT22;5412;59.450;18.124;2023-11-25T06:10:22;-2.60;99.90
10722;DHT22;5412;59.450;18.124;2023-11-25T06:12:48;-2.60;99.90
10722;DHT22;5412;59.450;18.124;2023-11-25T06:15:14;-2.60;99.90
10722;DHT22;5412;59.450;18.124;2023-11-25T06:17:41;-2.50;99.90
10722;DHT22;5412;59.450;18.124;2023-11-25T06:20:09;-2.60;99.90
10722;DHT22;5412;59.450;18.124;2023-11-25T06:22:35;-2.60;99.90
10722;DHT22;5412;59.450;18.124;2023-11-25T06:25:01;-2.60;99.90
10722;DHT22;5412;59.450;18.124;2023-11-25T06:27:30;-2.60;99.90
10722;DHT22;5412;59.450;18.124;2023-11-25T06:29:55;-2.60;99.90
10722;DHT22;5412;59.450;18.124;2023-11-25T06:32:23;-2.50;99.90
10722;DHT22;5412;59.450;18.124;2023-11-25T06:34:51;-2.40;99.90
10722;DHT22;5412;59.450;18.124;2023-11-25T06:37:17;-2.50;99.90
10722;DHT22;5412;59.450;18.124;2023-11-25T06:39:43;-2.40;99.90
10722;DHT22;5412;59.450;18.124;2023-11-25T06:42:08;-2.40;99.90
10722;DHT22;5412;59.450;18.124;2023-11-25T06:44:35;-2.40;99.90
10722;DHT22;5412;59.450;18.124;2023-11-25T06:47:02;-2.50;99.90
10722;DHT22;5412;59.450;18.124;2023-11-25T06:49:28;-2.30;99.90
10722;DHT22;5412;59.450;18.124;2023-11-25T06:51:54;-2.40;99.90
10722;DHT22;5412;59.450;18.124;2023-11-25T06:54:19;-2.30;99.90
10722;DHT22;5412;59.450;18.124;2023-11-25T06:56:45;-2.30;99.90
10722;DHT22;5412;59.450;18.124;2023-11-25T06:59:11;-2.40;99.90
10722;DHT22;5412;59.450;18.124;2023-11-25T07:01:36;-2.40;99.90
10722;DHT22;5412;59.450;18.124;2023-11-25T07:04:03;-2.30;99.90
10722;DHT22;5412;59.450;18.124;2023-11-25T07:06:30;-2.30;99.90
10722;DHT22;5412;59.450;18.124;2023-11-25T07:08:56;-2.20;99.90
10722;DHT22;5412;59.450;18.124;2023-11-25T07:11:26;-2.20;99.90
10722;DHT22;5412;59.450;18.124;2023-11-25T07:13:52;-2.20;99.90
10722;DHT22;5412;59.450;18.124;2023-11-25T07:16:19;-2.20;99.90
10722;DHT22;5412;59.450;18.124;2023-11-25T07:18:47;-2.10;99.90
10722;DHT22;5412;59.450;18.124;2023-11-25T07:21:15;-2.10;99.90
10722;DHT22;5412;59.450;18.124;2023-11-25T07:23:41;-2.10;99.90
10722;DHT22;5412;59.450;18.124;2023-11-25T07:26:08;-2.20;99.90
10722;DHT22;5412;59.450;18.124;2023-11-25T07:28:38;-2.30;99.90
10722;DHT22;5412;59.450;18.124;2023-11-25T07:31:04;-2.20;99.90
10722;DHT22;5412;59.450;18.124;2023-11-25T07:33:30;-2.40;99.90
10722;DHT22;5412;59.450;18.124;2023-11-25T07:35:56;-2.40;99.90
10722;DHT22;5412;59.450;18.124;2023-11-25T07:38:23;-2.50;99.90
10722;DHT22;5412;59.450;18.124;2023-11-25T07:40:49;-2.50;99.90
10722;DHT22;5412;59.450;18.124;2023-11-25T07:43:14;-2.60;99.90
10722;DHT22;5412;59.450;18.124;2023-11-25T07:45:41;-2.70;99.90
10722;DHT22;5412;59.450;18.124;2023-11-25T07:48:07;-2.70;99.90
10722;DHT22;5412;59.450;18.124;2023-11-25T07:50:34;-2.60;99.90
10722;DHT22;5412;59.450;18.124;2023-11-25T07:53:00;-2.70;99.90
10722;DHT22;5412;59.450;18.124;2023-11-25T07:55:27;-2.80;99.90
10722;DHT22;5412;59.450;18.124;2023-11-25T07:57:52;-2.80;99.90
10722;DHT22;5412;59.450;18.124;2023-11-25T08:00:18;-2.90;99.90
10722;DHT22;5412;59.450;18.124;2023-11-25T08:02:46;-2.80;99.90
10722;DHT22;5412;59.450;18.124;2023-11-25T08:05:14;-2.90;99.90
10722;DHT22;5412;59.450;18.124;2023-11-25T08:07:53;-2.90;99.90
10722;DHT22;5412;59.450;18.124;2023-11-25T08:10:20;-3.10;99.90
10722;DHT22;5412;59.450;18.124;2023-11-25T08:12:46;-3.00;99.90
10722;DHT22;5412;59.450;18.124;2023-11-25T08:15:12;-3.10;99.90
10722;DHT22;5412;59.450;18.124;2023-11-25T08:17:43;-3.10;99.90
10722;DHT22;5412;59.450;18.124;2023-11-25T08:20:09;-3.10;99.90
10722;DHT22;5412;59.450;18.124;2023-11-25T08:22:38;-3.20;99.90
10722;DHT22;5412;59.450;18.124;2023-11-25T08:25:06;-3.10;99.90
10722;DHT22;5412;59.450;18.124;2023-11-25T08:27:39;-2.90;99.90
10722;DHT22;5412;59.450;18.124;2023-11-25T08:30:06;-2.90;99.90
10722;DHT22;5412;59.450;18.124;2023-11-25T08:32:38;-3.10;99.90
10722;DHT22;5412;59.450;18.124;2023-11-25T08:35:04;-3.10;99.90
10722;DHT22;5412;59.450;18.124;2023-11-25T08:37:31;-3.00;99.90
10722;DHT22;5412;59.450;18.124;2023-11-25T08:39:58;-3.20;99.90
10722;DHT22;5412;59.450;18.124;2023-11-25T08:42:25;-3.10;99.90
10722;DHT22;5412;59.450;18.124;2023-11-25T08:44:52;-3.00;99.90
10722;DHT22;5412;59.450;18.124;2023-11-25T08:47:18;-3.00;99.90
10722;DHT22;5412;59.450;18.124;2023-11-25T08:49:44;-3.00;99.90
10722;DHT22;5412;59.450;18.124;2023-11-25T08:52:11;-3.00;99.90
10722;DHT22;5412;59.450;18.124;2023-11-25T08:54:38;-3.00;99.90
10722;DHT22;5412;59.450;18.124;2023-11-25T08:57:04;-2.90;99.90
10722;DHT22;5412;59.450;18.124;2023-11-25T08:59:33;-3.00;99.90
10722;DHT22;5412;59.450;18.124;2023-11-25T09:01:59;-3.40;99.90
10722;DHT22;5412;59.450;18.124;2023-11-25T09:04:25;-3.20;99.90
10722;DHT22;5412;59.450;18.124;2023-11-25T09:06:53;-3.30;99.90
10722;DHT22;5412;59.450;18.124;2023-11-25T09:09:22;-3.40;99.90
10722;DHT22;5412;59.450;18.124;2023-11-25T09:11:48;-3.40;99.90
10722;DHT22;5412;59.450;18.124;2023-11-25T09:14:14;-3.50;99.90
10722;DHT22;5412;59.450;18.124;2023-11-25T09:16:44;-3.60;99.90
10722;DHT22;5412;59.450;18.124;2023-11-25T09:19:10;-3.60;99.90
10722;DHT22;5412;59.450;18.124;2023-11-25T09:21:36;-3.70;99.90
10722;DHT22;5412;59.450;18.124;2023-11-25T09:24:02;-3.70;99.90
10722;DHT22;5412;59.450;18.124;2023-11-25T09:26:29;-3.60;99.90
10722;DHT22;5412;59.450;18.124;2023-11-25T09:28:55;-3.70;99.90
10722;DHT22;5412;59.450;18.124;2023-11-25T09:31:21;-3.60;99.90
10722;DHT22;5412;59.450;18.124;2023-11-25T09:33:49;-3.50;99.90
10722;DHT22;5412;59.450;18.124;2023-11-25T09:36:15;-3.60;99.90
10722;DHT22;5412;59.450;18.124;2023-11-25T09:38:41;-3.80;99.90
10722;DHT22;5412;59.450;18.124;2023-11-25T09:41:08;-3.70;99.90
10722;DHT22;5412;59.450;18.124;2023-11-25T09:43:34;-3.60;99.90
10722;DHT22;5412;59.450;18.124;2023-11-25T09:46:01;-3.70;99.90
10722;DHT22;5412;59.450;18.124;2023-11-25T09:48:27;-3.60;99.90
10722;DHT22;5412;59.450;18.124;2023-11-25T09:50:53;-3.90;99.90
10722;DHT22;5412;59.450;18.124;2023-11-25T09:53:25;-3.80;99.90
10722;DHT22;5412;59.450;18.124;2023-11-25T09:56:01;-3.80;99.90
10722;DHT22;5412;59.450;18.124;2023-11-25T09:58:36;-3.80;99.90
10722;DHT22;5412;59.450;18.124;2023-11-25T10:01:03;-3.90;99.90
10722;DHT22;5412;59.450;18.124;2023-11-25T10:03:41;-3.90;99.90
10722;DHT22;5412;59.450;18.124;2023-11-25T10:06:11;-4.10;99.90
10722;DHT22;5412;59.450;18.124;2023-11-25T10:08:38;-4.00;99.90
10722;DHT22;5412;59.450;18.124;2023-11-25T10:11:06;-4.20;99.90
10722;DHT22;5412;59.450;18.124;2023-11-25T10:13:38;-4.10;99.90
10722;DHT22;5412;59.450;18.124;2023-11-25T10:16:05;-4.00;99.90
10722;DHT22;5412;59.450;18.124;2023-11-25T10:18:31;-3.90;99.90
10722;DHT22;5412;59.450;18.124;2023-11-25T10:20:58;-4.00;99.90
10722;DHT22;5412;59.450;18.124;2023-11-25T10:23:27;-4.10;99.90
10722;DHT22;5412;59.450;18.124;2023-11-25T10:25:55;-4.00;99.90
10722;DHT22;5412;59.450;18.124;2023-11-25T10:28:25;-4.10;99.90
10722;DHT22;5412;59.450;18.124;2023-11-25T10:31:04;-4.10;99.90
10722;DHT22;5412;59.450;18.124;2023-11-25T10:33:31;-3.90;99.90
10722;DHT22;5412;59.450;18.124;2023-11-25T10:35:58;-3.90;99.90
10722;DHT22;5412;59.450;18.124;2023-11-25T10:38:24;-3.80;99.90
10722;DHT22;5412;59.450;18.124;2023-11-25T10:41:04;-3.80;99.90
10722;DHT22;5412;59.450;18.124;2023-11-25T10:43:31;-3.80;99.90
10722;DHT22;5412;59.450;18.124;2023-11-25T10:46:15;-3.90;99.90
10722;DHT22;5412;59.450;18.124;2023-11-25T10:48:41;-4.00;99.90
10722;DHT22;5412;59.450;18.124;2023-11-25T10:51:08;-4.00;99.90
10722;DHT22;5412;59.450;18.124;2023-11-25T10:53:37;-4.00;99.90
10722;DHT22;5412;59.450;18.124;2023-11-25T10:56:03;-4.00;99.90
10722;DHT22;5412;59.450;18.124;2023-11-25T10:58:34;-4.10;99.90
10722;DHT22;5412;59.450;18.124;2023-11-25T11:01:01;-4.00;99.90
10722;DHT22;5412;59.450;18.124;2023-11-25T11:07:15;-3.90;99.90
10722;DHT22;5412;59.450;18.124;2023-11-25T11:09:25;-3.90;99.90
10722;DHT22;5412;59.450;18.124;2023-11-25T11:12:00;-3.90;99.90
10722;DHT22;5412;59.450;18.124;2023-11-25T11:14:30;-4.00;99.90
10722;DHT22;5412;59.450;18.124;2023-11-25T11:17:04;-4.00;99.90
10722;DHT22;5412;59.450;18.124;2023-11-25T11:19:42;-3.90;99.90
10722;DHT22;5412;59.450;18.124;2023-11-25T11:22:10;-3.80;99.90
10722;DHT22;5412;59.450;18.124;2023-11-25T11:27:44;-3.70;99.90
10722;DHT22;5412;59.450;18.124;2023-11-25T11:32:49;-3.50;99.90
10722;DHT22;5412;59.450;18.124;2023-11-25T11:35:18;-3.50;99.90
10722;DHT22;5412;59.450;18.124;2023-11-25T11:37:48;-3.50;99.90
10722;DHT22;5412;59.450;18.124;2023-11-25T11:40:15;-3.40;99.90
10722;DHT22;5412;59.450;18.124;2023-11-25T11:42:46;-3.40;99.90
10722;DHT22;5412;59.450;18.124;2023-11-25T11:45:13;-3.30;99.90
10722;DHT22;5412;59.450;18.124;2023-11-25T11:50:29;-3.40;99.90
10722;DHT22;5412;59.450;18.124;2023-11-25T11:55:40;-3.40;99.90
10722;DHT22;5412;59.450;18.124;2023-11-25T11:58:07;-3.50;99.90
10722;DHT22;5412;59.450;18.124;2023-11-25T12:00:45;-3.70;99.90
10722;DHT22;5412;59.450;18.124;2023-11-25T12:03:12;-3.70;99.90
10722;DHT22;5412;59.450;18.124;2023-11-25T12:05:38;-3.70;99.90
10722;DHT22;5412;59.450;18.124;2023-11-25T12:08:04;-3.70;99.90
10722;DHT22;5412;59.450;18.124;2023-11-25T12:10:36;-3.60;99.90
10722;DHT22;5412;59.450;18.124;2023-11-25T12:13:03;-3.60;99.90
10722;DHT22;5412;59.450;18.124;2023-11-25T12:15:29;-3.80;99.90
10722;DHT22;5412;59.450;18.124;2023-11-25T12:17:58;-3.80;99.90
10722;DHT22;5412;59.450;18.124;2023-11-25T12:20:26;-3.80;99.90
10722;DHT22;5412;59.450;18.124;2023-11-25T12:22:54;-3.80;99.90
10722;DHT22;5412;59.450;18.124;2023-11-25T12:25:19;-3.80;99.90
10722;DHT22;5412;59.450;18.124;2023-11-25T12:28:08;-3.80;99.90
10722;DHT22;5412;59.450;18.124;2023-11-25T12:30:35;-3.60;99.90
10722;DHT22;5412;59.450;18.124;2023-11-25T12:33:01;-3.70;99.90
10722;DHT22;5412;59.450;18.124;2023-11-25T12:35:27;-3.60;99.90
10722;DHT22;5412;59.450;18.124;2023-11-25T12:37:53;-3.70;99.90
10722;DHT22;5412;59.450;18.124;2023-11-25T12:40:23;-3.80;99.90
10722;DHT22;5412;59.450;18.124;2023-11-25T12:42:51;-3.90;99.90
10722;DHT22;5412;59.450;18.124;2023-11-25T12:45:43;-3.80;99.90
10722;DHT22;5412;59.450;18.124;2023-11-25T12:48:12;-3.80;99.90
10722;DHT22;5412;59.450;18.124;2023-11-25T12:50:57;-3.90;99.90
10722;DHT22;5412;59.450;18.124;2023-11-25T12:53:23;-3.90;99.90
10722;DHT22;5412;59.450;18.124;2023-11-25T12:55:50;-4.00;99.90
10722;DHT22;5412;59.450;18.124;2023-11-25T12:58:17;-3.70;99.90
10722;DHT22;5412;59.450;18.124;2023-11-25T13:00:51;-3.60;99.90
10722;DHT22;5412;59.450;18.124;2023-11-25T13:03:24;-3.80;99.90
10722;DHT22;5412;59.450;18.124;2023-11-25T13:06:00;-3.90;99.90
10722;DHT22;5412;59.450;18.124;2023-11-25T13:08:31;-3.80;99.90
10722;DHT22;5412;59.450;18.124;2023-11-25T13:11:02;-3.80;99.90
10722;DHT22;5412;59.450;18.124;2023-11-25T13:13:34;-4.00;99.90
10722;DHT22;5412;59.450;18.124;2023-11-25T13:16:02;-4.00;99.90
10722;DHT22;5412;59.450;18.124;2023-11-25T13:18:30;-3.90;99.90
10722;DHT22;5412;59.450;18.124;2023-11-25T13:20:57;-3.90;99.90
10722;DHT22;5412;59.450;18.124;2023-11-25T13:23:23;-3.80;99.90
10722;DHT22;5412;59.450;18.124;2023-11-25T13:25:50;-3.80;99.90
10722;DHT22;5412;59.450;18.124;2023-11-25T13:28:19;-3.80;99.90
10722;DHT22;5412;59.450;18.124;2023-11-25T13:30:45;-4.00;99.90
10722;DHT22;5412;59.450;18.124;2023-11-25T13:33:12;-4.00;99.90
10722;DHT22;5412;59.450;18.124;2023-11-25T13:35:39;-3.90;99.90
10722;DHT22;5412;59.450;18.124;2023-11-25T13:38:04;-4.10;99.90
10722;DHT22;5412;59.450;18.124;2023-11-25T13:40:34;-4.10;99.90
10722;DHT22;5412;59.450;18.124;2023-11-25T13:43:11;-4.10;99.90
10722;DHT22;5412;59.450;18.124;2023-11-25T13:45:39;-3.90;99.90
10722;DHT22;5412;59.450;18.124;2023-11-25T13:48:05;-4.10;99.90
10722;DHT22;5412;59.450;18.124;2023-11-25T13:50:31;-4.10;99.90
10722;DHT22;5412;59.450;18.124;2023-11-25T13:52:57;-3.90;99.90
10722;DHT22;5412;59.450;18.124;2023-11-25T13:55:23;-3.90;99.90
10722;DHT22;5412;59.450;18.124;2023-11-25T13:57:52;-4.00;99.90
10722;DHT22;5412;59.450;18.124;2023-11-25T14:00:19;-4.00;99.90
10722;DHT22;5412;59.450;18.124;2023-11-25T14:02:45;-4.10;99.90
10722;DHT22;5412;59.450;18.124;2023-11-25T14:05:25;-4.10;99.90
10722;DHT22;5412;59.450;18.124;2023-11-25T14:07:51;-3.90;99.90
10722;DHT22;5412;59.450;18.124;2023-11-25T14:10:16;-3.80;99.90
10722;DHT22;5412;59.450;18.124;2023-11-25T14:12:42;-3.70;99.90
10722;DHT22;5412;59.450;18.124;2023-11-25T14:15:08;-3.90;99.90
10722;DHT22;5412;59.450;18.124;2023-11-25T14:17:35;-3.70;99.90
10722;DHT22;5412;59.450;18.124;2023-11-25T14:20:04;-3.70;99.90
10722;DHT22;5412;59.450;18.124;2023-11-25T14:22:43;-3.70;99.90
10722;DHT22;5412;59.450;18.124;2023-11-25T14:25:16;-3.80;99.90
10722;DHT22;5412;59.450;18.124;2023-11-25T14:27:43;-3.80;99.90
10722;DHT22;5412;59.450;18.124;2023-11-25T14:30:09;-3.80;99.90
10722;DHT22;5412;59.450;18.124;2023-11-25T14:32:36;-3.80;99.90
10722;DHT22;5412;59.450;18.124;2023-11-25T14:35:03;-3.90;99.90
10722;DHT22;5412;59.450;18.124;2023-11-25T14:37:29;-3.90;99.90
10722;DHT22;5412;59.450;18.124;2023-11-25T14:39:55;-4.00;99.90
10722;DHT22;5412;59.450;18.124;2023-11-25T14:42:21;-3.90;99.90
10722;DHT22;5412;59.450;18.124;2023-11-25T14:44:52;-3.90;99.90
10722;DHT22;5412;59.450;18.124;2023-11-25T14:47:21;-3.80;99.90
10722;DHT22;5412;59.450;18.124;2023-11-25T14:49:48;-4.00;99.90
10722;DHT22;5412;59.450;18.124;2023-11-25T14:52:14;-3.90;99.90
10722;DHT22;5412;59.450;18.124;2023-11-25T14:54:40;-4.00;99.90
10722;DHT22;5412;59.450;18.124;2023-11-25T14:57:07;-3.90;99.90
10722;DHT22;5412;59.450;18.124;2023-11-25T14:59:33;-3.80;99.90
10722;DHT22;5412;59.450;18.124;2023-11-25T15:02:00;-3.80;99.90
10722;DHT22;5412;59.450;18.124;2023-11-25T15:04:27;-3.70;99.90
10722;DHT22;5412;59.450;18.124;2023-11-25T15:06:56;-3.70;99.90
10722;DHT22;5412;59.450;18.124;2023-11-25T15:09:22;-3.60;99.90
10722;DHT22;5412;59.450;18.124;2023-11-25T15:11:48;-3.60;99.90
10722;DHT22;5412;59.450;18.124;2023-11-25T15:14:14;-3.70;99.90
10722;DHT22;5412;59.450;18.124;2023-11-25T15:16:41;-3.60;99.90
10722;DHT22;5412;59.450;18.124;2023-11-25T15:19:07;-3.70;99.90
10722;DHT22;5412;59.450;18.124;2023-11-25T15:21:32;-3.80;99.90
10722;DHT22;5412;59.450;18.124;2023-11-25T15:23:58;-3.80;99.90
10722;DHT22;5412;59.450;18.124;2023-11-25T15:26:25;-3.80;99.90
10722;DHT22;5412;59.450;18.124;2023-11-25T15:28:51;-3.70;99.90
10722;DHT22;5412;59.450;18.124;2023-11-25T15:31:19;-3.70;99.90
10722;DHT22;5412;59.450;18.124;2023-11-25T15:33:45;-3.60;99.90
10722;DHT22;5412;59.450;18.124;2023-11-25T15:36:12;-3.60;99.90
10722;DHT22;5412;59.450;18.124;2023-11-25T15:38:39;-3.70;99.90
10722;DHT22;5412;59.450;18.124;2023-11-25T15:41:09;-3.60;99.90
10722;DHT22;5412;59.450;18.124;2023-11-25T15:43:38;-3.60;99.90
10722;DHT22;5412;59.450;18.124;2023-11-25T15:46:05;-3.50;99.90